地図

経路データ

SID SEASON NUMBER BASIN SUBBASIN NAME ISO_TIME NATURE LAT LON WMO_WIND WMO_PRES WMO_AGENCY TRACK_TYPE DIST2LAND LANDFALL IFLAG USA_AGENCY USA_ATCF_ID USA_LAT USA_LON USA_RECORD USA_STATUS USA_WIND USA_PRES USA_SSHS USA_R34_NE USA_R34_SE USA_R34_SW USA_R34_NW USA_R50_NE USA_R50_SE USA_R50_SW USA_R50_NW USA_R64_NE USA_R64_SE USA_R64_SW USA_R64_NW USA_POCI USA_ROCI USA_RMW USA_EYE TOKYO_LAT TOKYO_LON TOKYO_GRADE TOKYO_WIND TOKYO_PRES TOKYO_R50_DIR TOKYO_R50_LONG TOKYO_R50_SHORT TOKYO_R30_DIR TOKYO_R30_LONG TOKYO_R30_SHORT TOKYO_LAND CMA_LAT CMA_LON CMA_CAT CMA_WIND CMA_PRES HKO_LAT HKO_LON HKO_CAT HKO_WIND HKO_PRES NEWDELHI_LAT NEWDELHI_LON NEWDELHI_GRADE NEWDELHI_WIND NEWDELHI_PRES NEWDELHI_CI NEWDELHI_DP NEWDELHI_POCI REUNION_LAT REUNION_LON REUNION_TYPE REUNION_WIND REUNION_PRES REUNION_TNUM REUNION_CI REUNION_RMW REUNION_R34_NE REUNION_R34_SE REUNION_R34_SW REUNION_R34_NW REUNION_R50_NE REUNION_R50_SE REUNION_R50_SW REUNION_R50_NW REUNION_R64_NE REUNION_R64_SE REUNION_R64_SW REUNION_R64_NW BOM_LAT BOM_LON BOM_TYPE BOM_WIND BOM_PRES BOM_TNUM BOM_CI BOM_RMW BOM_R34_NE BOM_R34_SE BOM_R34_SW BOM_R34_NW BOM_R50_NE BOM_R50_SE BOM_R50_SW BOM_R50_NW BOM_R64_NE BOM_R64_SE BOM_R64_SW BOM_R64_NW BOM_ROCI BOM_POCI BOM_EYE BOM_POS_METHOD BOM_PRES_METHOD NADI_LAT NADI_LON NADI_CAT NADI_WIND NADI_PRES WELLINGTON_LAT WELLINGTON_LON WELLINGTON_WIND WELLINGTON_PRES DS824_LAT DS824_LON DS824_STAGE DS824_WIND DS824_PRES TD9636_LAT TD9636_LON TD9636_STAGE TD9636_WIND TD9636_PRES TD9635_LAT TD9635_LON TD9635_WIND TD9635_PRES TD9635_ROCI NEUMANN_LAT NEUMANN_LON NEUMANN_CLASS NEUMANN_WIND NEUMANN_PRES MLC_LAT MLC_LON MLC_CLASS MLC_WIND MLC_PRES USA_GUST BOM_GUST BOM_GUST_PER REUNION_GUST REUNION_GUST_PER USA_SEAHGT USA_SEARAD_NE USA_SEARAD_SE USA_SEARAD_SW USA_SEARAD_NW STORM_SPEED STORM_DIR
1930196N20092 1930 32 NI BB NOT_NAMED 1930-07-15 00:00:00 TS 20.4000 92.0000 main 53 47 _________O____ -1 20.4000 92.0000 TC 34 2 19
1930196N20092 1930 32 NI BB NOT_NAMED 1930-07-15 03:00:00 TS 20.4917 92.0300 main 47 33 _________PO___ -1 20.5375 92.0450 TC 36 20.4000 92.0000 2 3 18
1930196N20092 1930 32 NI BB NOT_NAMED 1930-07-15 06:00:00 TS 20.6519 92.0881 main 30 23 _________OP___ -1 20.7000 92.1000 TC 39 20.5797 92.0701 2 4 18
1930196N20092 1930 32 NI BB NOT_NAMED 1930-07-15 09:00:00 TS 20.8390 92.1510 main 15 10 _________PP___ -1 20.9000 92.1649 TC 42 20.7576 92.1323 2 4 15
1930196N20092 1930 32 NI BB NOT_NAMED 1930-07-15 12:00:00 TS 21.0158 92.1892 main 10 0 _________OP___ -1 21.1000 92.2000 TC 45 20.9316 92.1783 2 3 7
1930196N20092 1930 32 NI BB NOT_NAMED 1930-07-15 15:00:00 TS 21.1788 92.1825 main 0 0 _________PO___ -1 21.2575 92.1650 TC 45 21.1000 92.2000 3 3 354
1930196N20092 1930 32 NI BB NOT_NAMED 1930-07-15 18:00:00 TS 21.3306 92.1455 main 0 0 _________OP___ -1 21.4000 92.1000 TC 45 21.2612 92.1910 3 3 347
1930196N20092 1930 32 NI BB NOT_NAMED 1930-07-15 21:00:00 TS 21.4825 92.1050 main 0 0 _________PP___ -1 21.5500 92.0575 TC 45 21.4149 92.1525 3 3 343
1930196N20092 1930 32 NI BB NOT_NAMED 1930-07-16 00:00:00 TS 21.6306 92.0439 main 0 0 _________OP___ -1 21.7000 92.0000 TC 45 21.5612 92.0878 3 3 335
1930196N20092 1930 32 NI BB NOT_NAMED 1930-07-16 03:00:00 TS 21.7787 91.9575 main 0 0 _________PO___ -1 21.8575 91.9150 TC 45 21.7000 92.0000 3 3 328
1930196N20092 1930 32 NI BB NOT_NAMED 1930-07-16 06:00:00 TS 21.9181 91.8544 main 0 0 _________OP___ -1 22.0000 91.8000 TC 45 21.8362 91.9087 3 3 321
1930196N20092 1930 32 NI BB NOT_NAMED 1930-07-16 09:00:00 TS 22.0362 91.7300 main 20 15 _________PP___ -1 22.1075 91.6650 TC 45 21.9649 91.7950 3 3 311
1930196N20092 1930 32 NI BB NOT_NAMED 1930-07-16 12:00:00 TS 22.1431 91.5794 main 23 20 _________OP___ -1 22.2000 91.5000 TC 45 22.0862 91.6587 3 4 305
1930196N20092 1930 32 NI BB NOT_NAMED 1930-07-16 15:00:00 TS 22.2500 91.4037 main 38 30 _________PO___ -1 22.3000 91.3075 TC 45 22.2000 91.5000 3 4 302
1930196N20092 1930 32 NI BB NOT_NAMED 1930-07-16 18:00:00 TS 22.3577 91.2128 main 30 10 _________OP___ -1 22.4000 91.1000 TC 45 22.3153 91.3257 3 4 301
1930196N20092 1930 32 NI BB NOT_NAMED 1930-07-16 21:00:00 TS 22.4650 91.0150 main 10 0 _________PP___ -1 22.5075 90.9000 TC 45 22.4225 91.1300 3 4 298
1930196N20092 1930 32 NI BB NOT_NAMED 1930-07-17 00:00:00 TS 22.5592 90.8097 main 10 0 _________OP___ -1 22.6000 90.7000 TC 45 22.5184 90.9194 3 4 293
1930196N20092 1930 32 NI BB NOT_NAMED 1930-07-17 03:00:00 TS 22.6287 90.6037 main 0 0 _________PO___ -1 22.6574 90.5074 TC 45 22.6000 90.7000 3 4 288
1930196N20092 1930 32 NI BB NOT_NAMED 1930-07-17 06:00:00 TS 22.6801 90.3971 main 0 0 _________OP___ -1 22.7000 90.3000 TC 45 22.6601 90.4941 3 4 284
1930196N20092 1930 32 NI BB NOT_NAMED 1930-07-17 09:00:00 TS 22.7248 90.1723 main 0 0 _________PP___ -1 22.7425 90.0649 TC 45 22.7072 90.2797 3 4 282
1930196N20092 1930 32 NI BB NOT_NAMED 1930-07-17 12:00:00 TS 22.7754 89.9252 main 0 0 _________OP___ -1 22.8000 89.8000 TC 45 22.7507 90.0504 3 5 285
1930196N20092 1930 32 NI BB NOT_NAMED 1930-07-17 15:00:00 TS 22.8500 89.6538 main 0 0 _________PO___ -1 22.9000 89.5076 TC 41 22.8000 89.8000 3 5 287
1930196N20092 1930 32 NI BB NOT_NAMED 1930-07-17 18:00:00 TS 22.9358 89.3689 main 0 0 _________OP___ -1 23.0000 89.2000 TC 37 22.8717 89.5378 3 5 286
1930196N20092 1930 32 NI BB NOT_NAMED 1930-07-17 21:00:00 TS 23.0035 89.0837 main 0 0 _________PP___ -1 23.0574 88.9149 TC 33 22.9496 89.2525 3 6 283
1930196N20092 1930 32 NI BB NOT_NAMED 1930-07-18 00:00:00 TS 23.0639 88.7705 main 0 0 _________OP___ -1 23.1000 88.6000 TC 30 23.0278 88.9409 3 6 281
1930196N20092 1930 32 NI BB NOT_NAMED 1930-07-18 03:00:00 TS 23.1250 88.4075 main 0 0 _________PO___ -1 23.1500 88.2150 TC 30 23.1000 88.6000 1 7 279
1930196N20092 1930 32 NI BB NOT_NAMED 1930-07-18 06:00:00 TS 23.1807 88.0103 main 0 0 _________OP___ -1 23.2000 87.8000 TC 30 23.1614 88.2206 1 7 278
1930196N20092 1930 32 NI BB NOT_NAMED 1930-07-18 09:00:00 TS 23.2326 87.6037 main 0 0 _________PP___ -1 23.2500 87.3925 TC 30 23.2152 87.8150 1 8 278
1930196N20092 1930 32 NI BB NOT_NAMED 1930-07-18 12:00:00 TS 23.2807 87.2009 main 0 0 _________OP___ -1 23.3000 87.0000 TC 30 23.2614 87.4019 1 7 278
1930196N20092 1930 32 NI BB NOT_NAMED 1930-07-18 15:00:00 TS 23.3287 86.8213 main 0 0 _________PO___ -1 23.3574 86.6425 TC 30 23.3000 87.0000 1 7 277
1930196N20092 1930 32 NI BB NOT_NAMED 1930-07-18 18:00:00 TS 23.3658 86.4718 main 0 0 _________OP___ -1 23.4000 86.3000 TC 30 23.3317 86.6436 1 6 274
1930196N20092 1930 32 NI BB NOT_NAMED 1930-07-18 21:00:00 TS 23.3783 86.1286 main 0 0 _________PP___ -1 23.3999 85.9574 TC 30 23.3568 86.2998 1 6 272
1930196N20092 1930 32 NI BB NOT_NAMED 1930-07-19 00:00:00 TS 23.3893 85.7780 main 0 0 _________OP___ -1 23.4000 85.6000 TC 30 23.3785 85.9561 1 7 274
1930196N20092 1930 32 NI BB NOT_NAMED 1930-07-19 03:00:00 TS 23.4250 85.4038 main 0 0 _________PO___ -1 23.4500 85.2076 TC 30 23.4000 85.6000 1 7 276
1930196N20092 1930 32 NI BB NOT_NAMED 1930-07-19 06:00:00 TS 23.4645 85.0072 main 0 0 _________OP___ -1 23.5000 84.8000 TC 30 23.4289 85.2144 1 7 274
1930196N20092 1930 32 NI BB NOT_NAMED 1930-07-19 09:00:00 TS 23.4824 84.6075 main 0 0 _________PP___ -1 23.5074 84.3999 TC 30 23.4573 84.8151 1 7 272
1930196N20092 1930 32 NI BB NOT_NAMED 1930-07-19 12:00:00 TS 23.4910 84.2041 main 0 0 _________OP___ -1 23.5000 84.0000 TC 30 23.4820 84.4082 1 7 271
1930196N20092 1930 32 NI BB NOT_NAMED 1930-07-19 15:00:00 TS 23.5000 83.8000 main 0 0 _________PO___ -1 23.4999 83.6000 TC 30 23.5000 84.0000 1 7 271
1930196N20092 1930 32 NI BB NOT_NAMED 1930-07-19 18:00:00 TS 23.5033 83.4081 main 0 0 _________OP___ -1 23.5000 83.2000 TC 30 23.5066 83.6161 1 7 270
1930196N20092 1930 32 NI BB NOT_NAMED 1930-07-19 21:00:00 TS 23.5032 83.0224 main 0 0 _________PP___ -1 23.4998 82.8150 TC 30 23.5066 83.2298 1 7 270
1930196N20092 1930 32 NI BB NOT_NAMED 1930-07-20 00:00:00 TS 23.5017 82.6143 main 0 0 _________OP___ -1 23.5000 82.4000 TC 30 23.5033 82.8286 1 8 270
1930196N20092 1930 32 NI BB NOT_NAMED 1930-07-20 03:00:00 TS 23.5000 82.1575 main 0 0 _________PO___ -1 23.5000 81.9150 TC 30 23.5000 82.4000 1 9 269
1930196N20092 1930 32 NI BB NOT_NAMED 1930-07-20 06:00:00 TS 23.4899 81.6621 main 0 0 _________OP___ -1 23.5000 81.4000 TC 30 23.4797 81.9241 1 9 268
1930196N20092 1930 32 NI BB NOT_NAMED 1930-07-20 09:00:00 TS 23.4737 81.1607 main 0 0 _________PP___ -1 23.4848 80.8998 TC 30 23.4625 81.4216 1 9 270
1930196N20092 1930 32 NI BB NOT_NAMED 1930-07-20 12:00:00 TS 23.4820 80.6542 main 0 0 _________OP___ -1 23.5000 80.4000 TC 30 23.4640 80.9084 1 9 274
1930196N20092 1930 32 NI BB NOT_NAMED 1930-07-20 15:00:00 TS 23.5387 80.1463 main 0 0 _________PO___ -1 23.5774 79.8925 TC 30 23.5000 80.4000 1 9 280
1930196N20092 1930 32 NI BB NOT_NAMED 1930-07-20 18:00:00 TS 23.6445 79.6450 main 0 0 _________OP___ -1 23.7000 79.4000 TC 30 23.5891 79.8900 1 9 285
1930196N20092 1930 32 NI BB NOT_NAMED 1930-07-20 21:00:00 TS 23.7813 79.1555 main 0 0 _________PP___ -1 23.8500 78.9201 TC 30 23.7126 79.3908 1 9 288
1930196N20092 1930 32 NI BB NOT_NAMED 1930-07-21 00:00:00 TS 23.9274 78.7106 main 0 0 _________OP___ -1 24.0000 78.5000 TC 30 23.8548 78.9211 1 8 290
1930196N20092 1930 32 NI BB NOT_NAMED 1930-07-21 03:00:00 TS 24.0499 78.3386 main 0 0 _________PO___ -1 24.0998 78.1773 TC 30 24.0000 78.5000 1 7 290
1930196N20092 1930 32 NI BB NOT_NAMED 1930-07-21 06:00:00 TS 24.1600 78.0266 main 0 0 _________OP___ -1 24.2000 77.9000 TC 30 24.1201 78.1533 1 6 294
1930196N20092 1930 32 NI AS NOT_NAMED 1930-07-21 09:00:00 TS 24.2919 77.7309 main 0 0 _________PP___ -1 24.3424 77.6075 TC 30 24.2414 77.8543 1 6 297
1930196N20092 1930 32 NI AS NOT_NAMED 1930-07-21 12:00:00 TS 24.4336 77.4391 main 0 0 _________OP___ -1 24.5000 77.3000 TC 30 24.3671 77.5783 1 6 297
1930196N20092 1930 32 NI AS NOT_NAMED 1930-07-21 15:00:00 TS 24.5750 77.1250 main 0 0 _________PO___ -1 24.6500 76.9500 TC 30 24.5000 77.3000 1 6 296
1930196N20092 1930 32 NI AS NOT_NAMED 1930-07-21 18:00:00 TS 24.7097 76.8284 main 0 0 _________OP___ -1 24.8000 76.6000 TC 30 24.6419 76.9996 1 6 297
1930196N20092 1930 32 NI AS NOT_NAMED 1930-07-21 21:00:00 TS 24.8546 76.5221 main 0 0 _________PP___ -1 24.9500 76.2876 TC 30 24.7910 76.6784 1 6 298
1930196N20092 1930 32 NI AS NOT_NAMED 1930-07-22 00:00:00 TS 24.9964 76.2287 main 0 0 _________OP___ -1 25.1000 76.0000 TC 30 24.9446 76.3430 1 5 297
1930196N20092 1930 32 NI AS NOT_NAMED 1930-07-22 03:00:00 NR 25.1000 76.0000 main 0 __________O___ -1 TC 25.1000 76.0000 1 5 297

IBTrACS Databaseについて

本データベースは、米国NOAAが公開する1842年以降の世界の熱帯低気圧のベストトラックデータアーカイブInternational Best Track Archive for Climate Stewardship (IBTrACS)を、ウェブで閲覧しやすい形式に変換したものです。

最終更新日:2021-10-21